Time;durP1;ratioP1;P1;durP2;ratioP2;P2;SDS_P1;SDS_P2;PMS_P1;PMS_P2;Temp;Humidity;BMP_temperature;BMP_pressure;BME280_temperature;BME280_humidity;BME280_pressure;Samples;Min_cycle;Max_cycle;Signal;HPM_P1;HPM_P2
2022/01/18 00:01:23;;;;;;;0.82;0.82;;;;;;;-2.70;91.60;96403.81;5009997;28;20054;-84
2022/01/18 00:03:52;;;;;;;0.70;0.70;;;;;;;-2.66;91.58;96412.91;5010156;28;20053;-86
2022/01/18 00:06:21;;;;;;;0.90;0.90;;;;;;;-2.64;91.56;96416.09;5010791;28;20136;-84
2022/01/18 00:08:48;;;;;;;0.70;0.70;;;;;;;-2.62;91.64;96411.41;5011176;28;20512;-82
2022/01/18 00:11:19;;;;;;;0.80;0.80;;;;;;;-2.60;91.42;96418.31;5009790;28;20054;-81
2022/01/18 00:13:49;;;;;;;0.90;0.90;;;;;;;-2.64;91.46;96420.59;5010025;28;20207;-83
2022/01/18 00:18:52;;;;;;;0.80;0.80;;;;;;;-2.50;91.42;96434.44;5010962;28;20042;-84
2022/01/18 00:21:37;;;;;;;0.90;0.90;;;;;;;-2.45;91.09;96442.47;5013475;28;20054;-83
2022/01/18 00:24:43;;;;;;;0.80;0.80;;;;;;;-2.50;91.03;96450.28;5012534;28;20108;-84
2022/01/18 00:27:30;;;;;;;0.90;0.90;;;;;;;-2.60;91.18;96450.81;5013219;28;20042;-83
2022/01/18 00:30:26;;;;;;;0.60;0.60;;;;;;;-2.60;91.14;96460.56;4995668;28;20053;-84
2022/01/18 00:35:20;;;;;;;0.77;0.77;;;;;;;-2.62;91.47;96458.13;5013296;28;20057;-83
2022/01/18 00:37:54;;;;;;;0.90;0.90;;;;;;;-2.58;91.30;96463.75;5013478;28;20416;-85
2022/01/18 00:40:26;;;;;;;1.00;1.00;;;;;;;-2.60;91.14;96468.50;5013907;28;20056;-84
2022/01/18 00:42:53;;;;;;;0.80;0.80;;;;;;;-2.63;91.41;96475.81;5011571;28;20104;-85
2022/01/18 00:45:20;;;;;;;0.90;0.90;;;;;;;-2.60;91.32;96479.06;5012708;28;20045;-84
2022/01/18 00:47:48;;;;;;;0.85;0.85;;;;;;;-2.55;91.48;96487.91;5012884;28;20076;-84
2022/01/18 00:50:15;;;;;;;0.90;0.90;;;;;;;-2.56;91.32;96496.84;5012760;28;20097;-83
2022/01/18 00:52:49;;;;;;;0.70;0.70;;;;;;;-2.56;91.55;96499.50;5012806;28;20050;-84
2022/01/18 00:55:16;;;;;;;0.80;0.80;;;;;;;-2.52;91.39;96507.78;5011647;28;20092;-84
2022/01/18 00:57:43;;;;;;;0.80;0.80;;;;;;;-2.56;91.45;96506.59;5012856;28;20104;-84
2022/01/18 01:00:14;;;;;;;0.85;0.85;;;;;;;-2.47;91.21;96521.13;5013257;28;20085;-85
2022/01/18 01:02:41;;;;;;;0.55;0.55;;;;;;;-2.47;91.23;96524.56;5024824;28;20050;-84
2022/01/18 01:05:09;;;;;;;0.70;0.70;;;;;;;-2.49;91.27;96523.97;5012093;28;20082;-83
2022/01/18 01:07:37;;;;;;;0.98;0.98;;;;;;;-2.46;91.53;96528.81;5012305;28;20752;-85
2022/01/18 01:10:25;;;;;;;0.80;0.80;;;;;;;-2.43;91.12;96531.03;5012515;28;20050;-85
2022/01/18 01:12:52;;;;;;;0.73;0.73;;;;;;;-2.44;91.19;96529.41;5010890;28;20046;-83
2022/01/18 01:15:21;;;;;;;0.60;0.60;;;;;;;-2.47;90.88;96536.97;5012747;28;20136;-81
2022/01/18 01:18:05;;;;;;;0.90;0.90;;;;;;;-2.51;90.82;96549.00;5011928;28;20521;-82
2022/01/18 01:35:09;;;;;;;0.90;0.90;;;;;;;-2.64;91.24;96569.25;5010120;28;20054;-81
2022/01/18 01:45:50;;;;;;;0.60;0.60;;;;;;;-2.63;91.06;96589.38;5007202;28;20046;-81
2022/01/18 01:48:19;;;;;;;0.90;0.90;;;;;;;-2.70;91.21;96585.97;5010518;28;20596;-80
2022/01/18 01:53:16;;;;;;;0.80;0.80;;;;;;;-2.63;91.59;96591.22;5007849;28;20054;-81
2022/01/18 01:55:44;;;;;;;0.80;0.80;;;;;;;-2.61;91.53;96604.97;5009770;28;20045;-81
2022/01/18 01:58:14;;;;;;;0.60;0.60;;;;;;;-2.62;91.57;96608.66;5009514;28;20564;-81
2022/01/18 02:00:55;;;;;;;0.80;0.80;;;;;;;-2.64;91.49;96613.34;5009862;28;20140;-83
2022/01/18 02:03:23;;;;;;;0.90;0.90;;;;;;;-2.65;91.72;96603.81;5007223;28;20541;-81
2022/01/18 02:05:51;;;;;;;0.70;0.70;;;;;;;-2.59;91.86;96612.69;5009730;28;20107;-82
2022/01/18 02:08:18;;;;;;;0.70;0.70;;;;;;;-2.56;91.61;96620.97;5008629;28;20610;-81
2022/01/18 02:10:45;;;;;;;0.85;0.85;;;;;;;-2.57;91.59;96626.50;5010143;28;20052;-81
2022/01/18 02:13:14;;;;;;;0.80;0.80;;;;;;;-2.59;91.48;96631.19;5011789;28;20501;-82
2022/01/18 02:16:10;;;;;;;0.80;0.80;;;;;;;-2.57;91.86;96639.69;5010486;28;20061;-82
2022/01/18 02:24:08;;;;;;;0.88;0.88;;;;;;;-2.54;91.54;96668.31;5013126;28;20049;-81
2022/01/18 02:26:35;;;;;;;0.80;0.80;;;;;;;-2.51;91.43;96678.41;5011566;28;20054;-82
2022/01/18 02:29:05;;;;;;;0.90;0.90;;;;;;;-2.52;91.31;96685.53;5010866;28;20054;-81
2022/01/18 02:31:33;;;;;;;0.70;0.70;;;;;;;-2.54;91.37;96698.16;5011125;28;20084;-82
2022/01/18 02:34:06;;;;;;;0.90;0.90;;;;;;;-2.53;91.24;96691.88;5011167;28;20538;-80
2022/01/18 02:36:33;;;;;;;0.70;0.70;;;;;;;-2.54;90.87;96697.34;5009448;28;20493;-81
2022/01/18 02:39:00;;;;;;;0.90;0.90;;;;;;;-2.58;90.67;96702.28;5011207;28;20128;-80
2022/01/18 02:41:30;;;;;;;0.82;0.82;;;;;;;-2.59;90.31;96705.13;5010398;28;20081;-80
2022/01/18 02:44:12;;;;;;;0.70;0.70;;;;;;;-2.60;90.39;96720.16;5011470;28;20072;-80
2022/01/18 02:46:42;;;;;;;0.88;0.88;;;;;;;-2.62;90.25;96736.22;5010636;28;20054;-81
2022/01/18 02:49:13;;;;;;;1.00;1.00;;;;;;;-2.71;89.93;96736.69;5009761;28;20107;-82
2022/01/18 02:51:40;;;;;;;0.80;0.80;;;;;;;-2.70;90.23;96744.41;5010596;28;20077;-81
2022/01/18 02:54:12;;;;;;;0.98;0.98;;;;;;;-2.72;90.25;96735.88;5002221;28;20152;-80
2022/01/18 02:56:51;;;;;;;0.70;0.70;;;;;;;-2.70;89.85;96746.25;5008851;28;20080;-80
2022/01/18 02:59:38;;;;;;;0.70;0.70;;;;;;;-2.79;89.70;96753.59;5008788;28;20153;-80
2022/01/18 03:05:03;;;;;;;0.90;0.90;;;;;;;-3.03;89.47;96770.25;5012253;28;20080;-81
2022/01/18 03:07:32;;;;;;;0.80;0.80;;;;;;;-3.06;89.26;96763.56;5010671;28;20137;-80
2022/01/18 03:09:59;;;;;;;0.80;0.80;;;;;;;-3.08;89.47;96771.69;5012160;28;20083;-81
2022/01/18 03:12:26;;;;;;;0.80;0.80;;;;;;;-3.08;89.93;96789.34;5011765;28;20583;-82
2022/01/18 03:14:53;;;;;;;0.70;0.70;;;;;;;-3.10;89.50;96792.19;5010374;28;20517;-81
2022/01/18 03:17:21;;;;;;;0.70;0.70;;;;;;;-3.14;89.60;96793.66;5011955;28;20389;-80
2022/01/18 03:19:48;;;;;;;0.80;0.80;;;;;;;-3.17;89.56;96801.97;5010359;28;20074;-80
2022/01/18 03:22:15;;;;;;;0.80;0.80;;;;;;;-3.14;89.65;96812.13;5011933;28;20054;-81
2022/01/18 03:25:01;;;;;;;0.77;0.77;;;;;;;-3.15;89.87;96826.31;4993898;28;20049;-81
2022/01/18 03:30:15;;;;;;;0.80;0.80;;;;;;;-3.23;89.83;96834.47;5011503;28;20085;-81
2022/01/18 03:32:42;;;;;;;0.80;0.80;;;;;;;-3.25;90.07;96846.25;5010920;28;20088;-84
2022/01/18 03:35:10;;;;;;;0.90;0.90;;;;;;;-3.23;90.09;96857.41;5011948;28;20142;-81
2022/01/18 03:37:38;;;;;;;0.80;0.80;;;;;;;-3.22;89.87;96865.09;5018311;28;20394;-83
2022/01/18 03:40:08;;;;;;;0.70;0.70;;;;;;;-3.22;89.78;96870.38;5012945;28;20141;-87
2022/01/18 03:42:50;;;;;;;0.80;0.80;;;;;;;-3.20;89.41;96864.91;5011527;28;20100;-83
2022/01/18 03:45:19;;;;;;;0.80;0.80;;;;;;;-3.22;89.31;96866.94;4662251;28;10000474;-81
2022/01/18 03:47:49;;;;;;;0.82;0.82;;;;;;;-3.22;89.40;96870.38;5011527;28;20051;-83
2022/01/18 03:50:19;;;;;;;0.80;0.80;;;;;;;-3.21;89.25;96882.56;5011408;28;20042;-84
2022/01/18 03:52:51;;;;;;;0.70;0.70;;;;;;;-3.22;89.02;96888.03;5000138;28;20056;-87
2022/01/18 03:55:26;;;;;;;0.90;0.90;;;;;;;-3.21;89.14;96898.41;5008387;28;20149;-80
2022/01/18 03:57:54;;;;;;;0.80;0.80;;;;;;;-3.22;89.27;96906.50;5010814;28;20050;-87
2022/01/18 04:00:25;;;;;;;0.77;0.77;;;;;;;-3.31;89.28;96906.75;5011727;28;20042;-82
2022/01/18 04:02:53;;;;;;;0.70;0.70;;;;;;;-3.30;89.08;96910.19;5010102;28;20050;-84
2022/01/18 04:05:21;;;;;;;0.80;0.80;;;;;;;-3.31;89.25;96916.50;5011602;28;20500;-82
2022/01/18 04:07:50;;;;;;;0.60;0.60;;;;;;;-3.29;89.12;96925.03;5010852;28;20129;-83
2022/01/18 04:10:19;;;;;;;0.80;0.80;;;;;;;-3.34;88.93;96933.53;5015156;28;20479;-84
2022/01/18 04:12:48;;;;;;;0.80;0.80;;;;;;;-3.32;88.79;96938.59;5022834;28;20053;-82
2022/01/18 04:15:17;;;;;;;0.82;0.82;;;;;;;-3.30;89.10;96947.94;5015415;28;20062;-85
2022/01/18 04:31:01;;;;;;;0.63;0.63;;;;;;;-3.30;88.60;96986.69;5042008;28;20108;-85
2022/01/18 04:33:29;;;;;;;0.77;0.77;;;;;;;-3.32;88.58;96989.56;5021562;28;20061;-86
2022/01/18 04:35:56;;;;;;;0.65;0.65;;;;;;;-3.37;88.33;96991.16;5027082;28;20049;-85
2022/01/18 04:38:25;;;;;;;0.77;0.77;;;;;;;-3.40;88.06;97007.41;5024225;28;20334;-86
2022/01/18 04:40:52;;;;;;;0.80;0.80;;;;;;;-3.51;87.87;97014.13;5022816;28;20093;-87
2022/01/18 04:48:37;;;;;;;0.90;0.90;;;;;;;-3.57;87.96;97028.09;5019443;28;20471;-87
2022/01/18 04:51:17;;;;;;;1.00;1.00;;;;;;;-3.61;87.98;97046.16;5021288;28;20115;-87
2022/01/18 04:53:49;;;;;;;0.80;0.80;;;;;;;-3.62;88.31;97055.09;5015889;28;20042;-86
2022/01/18 04:56:26;;;;;;;0.70;0.70;;;;;;;-3.59;88.05;97044.13;5010995;28;20050;-86
2022/01/18 04:58:54;;;;;;;0.70;0.70;;;;;;;-3.71;88.04;97074.75;5010700;28;20461;-86
2022/01/18 05:01:21;;;;;;;0.60;0.60;;;;;;;-3.81;87.49;97084.88;4671172;28;10000330;-86
2022/01/18 05:03:51;;;;;;;0.60;0.60;;;;;;;-3.88;87.90;97079.56;5024850;28;20119;-84
2022/01/18 05:06:22;;;;;;;0.80;0.80;;;;;;;-3.86;87.94;97087.28;5017860;28;20076;-83
2022/01/18 05:08:50;;;;;;;0.90;0.90;;;;;;;-3.87;88.07;97102.31;5033331;28;20107;-86
2022/01/18 05:11:23;;;;;;;0.80;0.80;;;;;;;-4.00;87.97;97082.00;5038756;28;20065;-88
2022/01/18 05:24:30;;;;;;;0.80;0.80;;;;;;;-3.92;87.02;97150.34;5013308;28;20140;-85
2022/01/18 05:27:00;;;;;;;0.60;0.60;;;;;;;-3.96;86.58;97150.91;5010744;28;20045;-84
2022/01/18 05:29:39;;;;;;;0.70;0.70;;;;;;;-3.96;86.80;97157.00;5020120;28;20049;-85
2022/01/18 05:32:08;;;;;;;0.93;0.93;;;;;;;-4.08;86.58;97163.03;5020219;28;20058;-85
2022/01/18 05:34:35;;;;;;;0.80;0.80;;;;;;;-4.08;86.77;97173.56;5010634;28;20069;-88
2022/01/18 05:37:02;;;;;;;0.80;0.80;;;;;;;-4.15;86.69;97163.03;5012033;28;20096;-86
2022/01/18 05:39:29;;;;;;;0.70;0.70;;;;;;;-4.17;86.98;97186.09;5011602;28;20172;-91
2022/01/18 05:42:01;;;;;;;0.80;0.80;;;;;;;-4.19;86.91;97198.66;5016339;28;20046;-86
2022/01/18 05:44:28;;;;;;;0.70;0.70;;;;;;;-4.24;86.81;97195.78;5017437;28;20049;-86
2022/01/18 05:46:58;;;;;;;0.70;0.70;;;;;;;-4.23;86.90;97198.25;5013738;28;20061;-86
2022/01/18 05:49:25;;;;;;;0.80;0.80;;;;;;;-4.27;86.96;97215.44;5012526;28;20053;-86
2022/01/18 05:51:53;;;;;;;0.90;0.90;;;;;;;-4.27;87.14;97233.88;5012476;28;20054;-85
2022/01/18 05:54:21;;;;;;;0.90;0.90;;;;;;;-4.32;86.98;97231.00;5010277;28;20114;-84
2022/01/18 05:56:49;;;;;;;0.50;0.50;;;;;;;-4.29;86.66;97216.63;5016184;28;20054;-86
2022/01/18 05:59:23;;;;;;;0.70;0.70;;;;;;;-4.39;86.49;97241.50;5020568;28;20104;-87
2022/01/18 06:02:01;;;;;;;0.90;0.90;;;;;;;-4.42;86.83;97239.25;5003511;28;20188;-85
2022/01/18 06:07:16;;;;;;;0.70;0.70;;;;;;;-4.42;86.70;97251.59;5012413;28;20050;-88
2022/01/18 06:09:44;;;;;;;0.70;0.70;;;;;;;-4.45;86.73;97265.16;4991161;28;20397;-87
2022/01/18 06:12:11;;;;;;;0.65;0.65;;;;;;;-4.50;86.65;97263.09;5008411;28;20046;-87
2022/01/18 06:14:39;;;;;;;0.77;0.77;;;;;;;-4.51;86.77;97271.19;5009905;28;20404;-89
2022/01/18 06:17:06;;;;;;;0.80;0.80;;;;;;;-4.53;86.72;97281.91;5009721;28;20464;-85
2022/01/18 06:19:33;;;;;;;0.88;0.88;;;;;;;-4.54;86.52;97279.47;5010966;28;20096;-86
2022/01/18 06:22:00;;;;;;;1.00;1.00;;;;;;;-4.55;86.53;97289.19;5013179;28;20054;-90
2022/01/18 06:24:27;;;;;;;0.73;0.73;;;;;;;-4.62;86.13;97291.75;5018571;28;20056;-87
2022/01/18 06:27:06;;;;;;;0.80;0.80;;;;;;;-4.66;86.15;97292.31;5005822;28;20056;-90
2022/01/18 06:29:35;;;;;;;0.75;0.75;;;;;;;-4.65;85.88;97296.59;5020212;28;20049;-85
2022/01/18 06:32:04;;;;;;;1.00;1.00;;;;;;;-4.62;85.92;97302.28;5008428;28;20081;-86
2022/01/18 06:34:32;;;;;;;0.85;0.85;;;;;;;-4.60;85.50;97310.00;5013661;28;20415;-88
2022/01/18 06:37:04;;;;;;;0.80;0.80;;;;;;;-4.61;85.54;97318.88;5028166;28;20068;-91
2022/01/18 06:39:31;;;;;;;0.82;0.82;;;;;;;-4.62;85.57;97328.63;5018498;28;20556;-89
2022/01/18 06:42:02;;;;;;;0.80;0.80;;;;;;;-4.68;85.59;97336.47;5014215;28;20096;-88
2022/01/18 06:44:29;;;;;;;0.65;0.65;;;;;;;-4.71;85.35;97340.28;5023029;28;20045;-84
2022/01/18 06:46:56;;;;;;;0.60;0.60;;;;;;;-4.79;85.00;97351.72;5022772;28;20081;-87
2022/01/18 06:49:23;;;;;;;1.00;1.00;;;;;;;-4.81;85.01;97360.81;5013481;28;20073;-91
2022/01/18 06:51:51;;;;;;;0.80;0.80;;;;;;;-4.82;84.97;97364.47;5028923;28;20045;-90
2022/01/18 06:54:18;;;;;;;0.63;0.63;;;;;;;-4.79;85.14;97362.25;5019651;28;20057;-91
2022/01/18 06:56:48;;;;;;;0.80;0.80;;;;;;;-4.75;85.04;97369.81;5021977;28;20069;-88
2022/01/18 06:59:19;;;;;;;0.60;0.60;;;;;;;-4.79;85.12;97371.97;5018833;28;20567;-90
2022/01/18 07:01:47;;;;;;;0.70;0.70;;;;;;;-4.72;84.88;97399.19;5025811;28;20045;-90
2022/01/18 07:04:14;;;;;;;0.60;0.60;;;;;;;-4.75;84.14;97391.66;5022719;28;20045;-93
2022/01/18 07:06:42;;;;;;;0.80;0.80;;;;;;;-4.76;nan;97405.00;5026335;28;20056;-93
2022/01/18 07:09:09;;;;;;;0.90;0.90;;;;;;;-4.72;84.25;97408.91;5028284;28;20065;-93
2022/01/18 07:11:42;;;;;;;0.80;0.80;;;;;;;-4.65;84.53;97417.69;5020165;28;20046;-91
2022/01/18 07:14:09;;;;;;;0.90;0.90;;;;;;;-4.58;84.26;97426.47;5019085;28;20100;-91
2022/01/18 07:16:36;;;;;;;0.90;0.90;;;;;;;-4.69;83.30;97427.75;5016501;28;20158;-91
2022/01/18 07:19:06;;;;;;;0.80;0.80;;;;;;;-4.73;83.30;97444.94;5017264;28;20077;-91
2022/01/18 07:21:35;;;;;;;0.80;0.80;;;;;;;-4.69;83.29;97451.47;5017517;28;20052;-91
2022/01/18 07:24:06;;;;;;;0.80;0.80;;;;;;;-4.73;83.16;97462.56;5019518;28;20080;-91
2022/01/18 07:26:37;;;;;;;0.75;0.75;;;;;;;-4.78;82.84;97460.47;5005090;28;20054;-92
2022/01/18 07:29:08;;;;;;;0.77;0.77;;;;;;;-4.78;82.74;97471.00;4991946;28;20066;-94
2022/01/18 07:31:48;;;;;;;0.80;0.80;;;;;;;-4.72;82.97;97472.09;5025696;28;20058;-93
2022/01/18 07:34:18;;;;;;;0.80;0.80;;;;;;;-4.74;83.00;97474.06;5008952;28;20056;-93
2022/01/18 07:36:46;;;;;;;0.73;0.73;;;;;;;-4.61;82.85;97484.75;5021619;28;20070;-91
2022/01/18 07:39:13;;;;;;;0.80;0.80;;;;;;;-4.60;82.35;97489.03;5018925;28;20056;-92
2022/01/18 07:41:40;;;;;;;0.68;0.68;;;;;;;-4.74;82.05;97500.41;5019240;28;20046;-91
2022/01/18 07:44:07;;;;;;;0.70;0.70;;;;;;;-4.78;82.30;97513.13;5022300;28;20070;-92
2022/01/18 07:46:34;;;;;;;0.68;0.68;;;;;;;-4.86;82.35;97519.31;5020220;28;20114;-92
2022/01/18 07:49:01;;;;;;;0.65;0.65;;;;;;;-4.89;81.95;97529.34;5019854;28;20046;-92
2022/01/18 07:51:29;;;;;;;0.60;0.60;;;;;;;-4.92;82.29;97540.25;5018069;28;20057;-90
2022/01/18 07:53:57;;;;;;;0.80;0.80;;;;;;;-4.85;82.33;97541.16;5021173;28;20500;-91
2022/01/18 07:56:24;;;;;;;0.68;0.68;;;;;;;-4.83;82.39;97549.69;5015594;28;20424;-91
2022/01/18 07:58:51;;;;;;;0.80;0.80;;;;;;;-4.91;82.23;97547.97;5018320;28;20157;-92
2022/01/18 08:01:19;;;;;;;0.70;0.70;;;;;;;-4.86;82.01;97560.56;5018033;28;20046;-92
2022/01/18 08:03:47;;;;;;;0.90;0.90;;;;;;;-4.89;81.99;97563.56;5017396;28;20427;-91
2022/01/18 08:06:14;;;;;;;0.80;0.80;;;;;;;-4.93;81.07;97564.94;5017228;28;20053;-91
2022/01/18 08:08:41;;;;;;;0.80;0.80;;;;;;;-5.03;80.65;97571.28;5023329;28;20052;-91
2022/01/18 08:11:08;;;;;;;0.88;0.88;;;;;;;-4.96;81.00;97584.56;5021173;28;20058;-92
2022/01/18 08:13:41;;;;;;;0.80;0.80;;;;;;;-4.89;81.19;97592.53;5023111;28;20077;-91
2022/01/18 08:19:11;;;;;;;0.70;0.70;;;;;;;-4.82;80.51;97599.50;4999899;28;20081;-94
2022/01/18 08:21:38;;;;;;;1.08;1.08;;;;;;;-4.82;79.94;97610.03;5003133;28;20118;-92
2022/01/18 08:24:11;;;;;;;0.80;0.80;;;;;;;-4.84;80.26;97624.38;5000234;28;20046;-92
2022/01/18 08:26:38;;;;;;;0.80;0.80;;;;;;;-4.80;80.15;97620.41;5005011;28;20054;-93
2022/01/18 08:29:05;;;;;;;0.80;0.80;;;;;;;-4.71;79.85;97626.38;5004020;28;20038;-93
2022/01/18 08:31:33;;;;;;;0.80;0.80;;;;;;;-4.64;79.56;97640.47;5002195;28;20058;-92
2022/01/18 08:34:00;;;;;;;0.65;0.65;;;;;;;-4.68;78.19;97644.47;5001528;28;20050;-93
2022/01/18 08:36:28;;;;;;;0.80;0.80;;;;;;;-4.72;78.23;97651.09;5002865;28;20054;-90
2022/01/18 08:38:55;;;;;;;1.00;1.00;;;;;;;-4.75;78.18;97652.25;5000876;28;20141;-93
2022/01/18 08:41:27;;;;;;;0.80;0.80;;;;;;;-4.69;78.21;97648.91;5005102;28;20035;-90
2022/01/18 08:43:54;;;;;;;0.98;0.98;;;;;;;-4.69;77.58;97643.63;5005512;28;20046;-92
2022/01/18 08:46:24;;;;;;;0.90;0.90;;;;;;;-4.66;77.31;97663.50;5008534;28;20062;-92
2022/01/18 08:49:05;;;;;;;0.80;0.80;;;;;;;-4.83;76.21;97649.72;4977261;28;20046;-93
2022/01/18 08:51:33;;;;;;;0.80;0.80;;;;;;;-4.95;76.34;97665.13;5008071;28;20081;-92
2022/01/18 08:54:00;;;;;;;0.95;0.95;;;;;;;-4.93;76.74;97673.66;5023116;28;20061;-92
2022/01/18 08:56:29;;;;;;;0.80;0.80;;;;;;;-4.83;76.88;97681.31;5029520;28;20056;-90
2022/01/18 08:59:21;;;;;;;0.73;0.73;;;;;;;-4.74;76.84;97677.56;5028094;28;20100;-90
2022/01/18 09:01:49;;;;;;;0.80;0.80;;;;;;;-4.72;76.67;97691.38;5023895;28;20120;-92
2022/01/18 09:04:20;;;;;;;0.80;0.80;;;;;;;-4.55;76.74;97699.13;5026447;28;20046;-93
2022/01/18 09:06:50;;;;;;;0.75;0.75;;;;;;;-4.54;75.85;97700.75;5023307;28;20058;-91
2022/01/18 09:09:18;;;;;;;0.80;0.80;;;;;;;-4.69;75.10;97713.91;5026759;28;20069;-91
2022/01/18 09:11:46;;;;;;;0.80;0.80;;;;;;;-4.69;75.41;97713.91;5008124;28;20120;-93
2022/01/18 09:14:14;;;;;;;0.70;0.70;;;;;;;-4.59;75.92;97725.00;5024073;28;20053;-91
2022/01/18 09:16:44;;;;;;;0.60;0.60;;;;;;;-4.54;75.57;97733.16;5018580;28;20054;-92
2022/01/18 09:19:11;;;;;;;0.88;0.88;;;;;;;-4.54;75.18;97733.16;5019826;28;20049;-91
2022/01/18 09:21:39;;;;;;;0.85;0.85;;;;;;;-4.66;74.97;97742.50;5020213;28;20453;-92
2022/01/18 09:24:06;;;;;;;0.70;0.70;;;;;;;-4.66;75.18;97753.88;5021857;28;20056;-91
2022/01/18 09:26:33;;;;;;;0.80;0.80;;;;;;;-4.57;75.23;97762.50;5024117;28;20054;-90
2022/01/18 09:29:02;;;;;;;0.80;0.80;;;;;;;-4.57;75.11;97765.94;5030433;28;20054;-87
2022/01/18 09:31:29;;;;;;;0.73;0.73;;;;;;;-4.48;74.98;97774.59;5020484;28;20528;-87
2022/01/18 09:33:56;;;;;;;0.80;0.80;;;;;;;-4.62;74.25;97784.09;5023653;28;20079;-89
2022/01/18 09:36:23;;;;;;;0.70;0.70;;;;;;;-4.70;74.00;97797.31;5024051;28;20056;-88
2022/01/18 09:38:54;;;;;;;0.80;0.80;;;;;;;-4.68;74.50;97803.25;4675844;28;10000114;-86
2022/01/18 09:41:27;;;;;;;0.90;0.90;;;;;;;-4.68;74.76;97810.31;5024073;28;20068;-90
2022/01/18 09:43:56;;;;;;;0.80;0.80;;;;;;;-4.76;74.44;97813.00;5012289;28;20063;-92
2022/01/18 09:46:25;;;;;;;0.73;0.73;;;;;;;-4.81;74.32;97817.00;4999336;28;20054;-87
2022/01/18 09:48:54;;;;;;;0.80;0.80;;;;;;;-4.86;73.92;97829.03;5018360;28;20049;-91
2022/01/18 09:51:21;;;;;;;0.77;0.77;;;;;;;-5.00;74.00;97838.50;5013518;28;20104;-87
2022/01/18 09:53:51;;;;;;;0.70;0.70;;;;;;;-4.95;74.33;97851.16;5020851;28;20054;-91
2022/01/18 09:56:22;;;;;;;0.80;0.80;;;;;;;-5.04;74.45;97847.72;5021402;28;20505;-91
2022/01/18 09:58:55;;;;;;;0.80;0.80;;;;;;;-5.08;74.76;97851.72;5038680;28;20076;-91
2022/01/18 10:01:29;;;;;;;0.60;0.60;;;;;;;-5.16;74.59;97864.91;5023353;28;20045;-91
2022/01/18 10:04:31;;;;;;;0.80;0.80;;;;;;;-5.18;74.13;97877.41;5023619;28;20041;-91
2022/01/18 10:07:01;;;;;;;0.88;0.88;;;;;;;-5.19;73.79;97878.38;5020265;28;20113;-93
2022/01/18 10:09:31;;;;;;;0.73;0.73;;;;;;;-5.20;73.89;97893.38;5027598;28;20124;-88
2022/01/18 10:12:11;;;;;;;0.70;0.70;;;;;;;-5.26;73.39;97904.56;5018400;28;20102;-90
2022/01/18 10:14:54;;;;;;;0.63;0.63;;;;;;;-5.23;73.36;97897.16;5023369;28;20056;-91
2022/01/18 10:17:34;;;;;;;0.77;0.77;;;;;;;-5.27;72.48;97908.19;5038723;28;20029;-90
2022/01/18 10:20:07;;;;;;;0.70;0.70;;;;;;;-5.50;72.23;97906.28;5032587;28;20026;-91
2022/01/18 10:23:25;;;;;;;0.77;0.77;;;;;;;-5.58;72.41;97919.47;5046706;28;20054;-85
2022/01/18 10:25:54;;;;;;;0.60;0.60;;;;;;;-5.64;72.35;97914.88;5016375;28;20520;-88
2022/01/18 10:28:34;;;;;;;0.68;0.68;;;;;;;-5.75;72.37;97920.47;5035383;28;20159;-91
2022/01/18 10:37:14;;;;;;;0.73;0.73;;;;;;;-5.98;72.47;97944.84;5019324;28;20060;-92
2022/01/18 10:39:50;;;;;;;0.90;0.90;;;;;;;-5.87;73.00;97959.44;5001950;28;20089;-89
2022/01/18 10:42:36;;;;;;;0.75;0.75;;;;;;;-5.88;72.37;97960.41;4995672;28;20145;-89
2022/01/18 10:45:13;;;;;;;0.68;0.68;;;;;;;-5.94;72.14;97977.69;4993285;28;20507;-90
2022/01/18 10:47:52;;;;;;;0.80;0.80;;;;;;;-5.84;72.43;97977.50;4993746;28;20058;-88
2022/01/18 10:50:20;;;;;;;0.77;0.77;;;;;;;-5.74;72.88;97977.34;5008088;28;20046;-93
2022/01/18 10:52:47;;;;;;;0.60;0.60;;;;;;;-5.70;72.41;97982.09;5004191;28;20074;-89
2022/01/18 10:55:17;;;;;;;0.88;0.88;;;;;;;-5.63;72.24;97982.25;5004143;28;20062;-89
2022/01/18 10:57:45;;;;;;;0.80;0.80;;;;;;;-5.76;71.49;97988.00;5001127;28;20480;-90
2022/01/18 11:00:16;;;;;;;0.70;0.70;;;;;;;-5.77;71.46;97988.16;5013974;28;20149;-90
2022/01/18 11:02:50;;;;;;;0.73;0.73;;;;;;;-5.71;71.08;97998.03;5013748;28;20104;-89
2022/01/18 11:05:19;;;;;;;0.70;0.70;;;;;;;-5.76;70.68;97995.06;4999650;28;20054;-91
2022/01/18 11:07:47;;;;;;;0.70;0.70;;;;;;;-5.75;70.92;98001.97;5000523;28;20050;-90
2022/01/18 11:10:17;;;;;;;0.70;0.70;;;;;;;-5.68;70.81;98018.72;5011273;28;20050;-88
2022/01/18 11:13:02;;;;;;;1.00;1.00;;;;;;;-5.70;70.67;98007.53;5015051;28;20045;-88
2022/01/18 11:15:31;;;;;;;0.80;0.80;;;;;;;-5.70;70.22;98032.03;5023223;28;20049;-89
2022/01/18 11:18:02;;;;;;;0.90;0.90;;;;;;;-5.76;70.00;98039.75;5031751;28;20369;-90
2022/01/18 11:20:35;;;;;;;0.70;0.70;;;;;;;-5.77;69.96;98023.16;5040050;28;20049;-90
2022/01/18 11:23:08;;;;;;;0.87;0.87;;;;;;;-5.82;69.37;98049.13;5029415;28;20046;-88
2022/01/18 11:25:37;;;;;;;0.82;0.82;;;;;;;-5.74;69.92;98053.56;5016899;28;20053;-88
2022/01/18 11:28:07;;;;;;;0.80;0.80;;;;;;;-5.76;69.47;98050.28;5014256;28;20161;-87
2022/01/18 11:30:37;;;;;;;0.65;0.65;;;;;;;-5.93;69.76;98073.88;5019870;28;20050;-85
2022/01/18 11:33:07;;;;;;;0.70;0.70;;;;;;;-5.93;69.75;98068.63;5018894;28;20054;-87
2022/01/18 11:35:58;;;;;;;0.70;0.70;;;;;;;-5.96;69.51;98086.56;5023504;28;20053;-87
2022/01/18 11:38:45;;;;;;;0.90;0.90;;;;;;;-5.99;69.75;98094.78;5012982;28;20046;-92
2022/01/18 11:41:26;;;;;;;0.60;0.60;;;;;;;-6.05;69.71;98101.50;5006659;28;20053;-86
2022/01/18 11:43:55;;;;;;;0.70;0.70;;;;;;;-6.08;70.01;98106.25;5020391;28;20096;-86
2022/01/18 11:46:34;;;;;;;0.80;0.80;;;;;;;-6.05;69.85;98108.56;5017286;28;20212;-87
2022/01/18 11:49:07;;;;;;;0.68;0.68;;;;;;;-5.99;70.03;98115.81;4993408;28;20070;-88
2022/01/18 11:51:54;;;;;;;0.60;0.60;;;;;;;-6.08;69.23;98122.00;5010067;28;20049;-86
2022/01/18 11:55:11;;;;;;;0.80;0.80;;;;;;;-6.20;69.69;98127.56;5015329;28;20042;-87
2022/01/18 11:57:22;;;;;;;0.70;0.70;;;;;;;-6.18;70.06;98141.38;4996000;28;20070;-87
2022/01/18 11:59:55;;;;;;;0.80;0.80;;;;;;;-6.21;69.84;98146.09;5008200;28;20118;-91
2022/01/18 12:02:38;;;;;;;0.60;0.60;;;;;;;-6.21;69.96;98156.63;5019735;28;20113;-91
2022/01/18 12:05:14;;;;;;;0.70;0.70;;;;;;;-6.21;70.07;98170.56;5018494;28;20148;-90
2022/01/18 12:07:43;;;;;;;0.90;0.90;;;;;;;-6.19;69.93;98167.78;5012373;28;20058;-88
2022/01/18 12:10:38;;;;;;;0.70;0.70;;;;;;;-6.32;70.01;98178.75;5012500;28;20054;-88
2022/01/18 12:13:10;;;;;;;0.70;0.70;;;;;;;-6.35;70.03;98179.06;5015307;28;20050;-89
2022/01/18 12:15:40;;;;;;;0.50;0.50;;;;;;;-6.31;70.45;98180.38;5022493;28;20300;-89
2022/01/18 12:18:17;;;;;;;0.60;0.60;;;;;;;-6.29;70.22;98188.91;5015774;28;20061;-94
2022/01/18 12:20:55;;;;;;;0.88;0.88;;;;;;;-6.43;70.30;98185.09;5027155;28;20049;-87
2022/01/18 12:23:42;;;;;;;0.80;0.80;;;;;;;-6.49;69.79;98198.00;5036484;28;20527;-90
2022/01/18 12:26:20;;;;;;;0.90;0.90;;;;;;;-6.55;70.15;98213.41;5024730;28;20054;-91
2022/01/18 12:34:30;;;;;;;0.60;0.60;;;;;;;-6.53;70.69;98234.25;5004859;28;20398;-91
2022/01/18 12:37:27;;;;;;;0.77;0.77;;;;;;;-6.52;70.89;98240.34;5029653;28;20049;-90
2022/01/18 12:39:54;;;;;;;0.70;0.70;;;;;;;-6.57;70.35;98248.66;5030068;28;20049;-90
2022/01/18 12:45:13;;;;;;;0.60;0.60;;;;;;;-6.58;70.87;98260.97;5040908;28;20050;-91
2022/01/18 12:47:59;;;;;;;0.80;0.80;;;;;;;-6.60;70.98;98265.53;5047947;28;20045;-91
2022/01/18 12:50:40;;;;;;;0.75;0.75;;;;;;;-6.61;70.98;98263.91;5009612;28;20452;-87
2022/01/18 12:53:09;;;;;;;0.70;0.70;;;;;;;-6.64;71.18;98271.25;5032691;28;20036;-92
2022/01/18 12:55:58;;;;;;;0.68;0.68;;;;;;;-6.60;71.63;98286.53;5024526;28;20068;-91
2022/01/18 12:58:38;;;;;;;0.70;0.70;;;;;;;-6.59;71.98;98293.44;5022299;28;20112;-92
2022/01/18 13:01:11;;;;;;;0.60;0.60;;;;;;;-6.50;71.81;98293.50;5034698;28;20049;-90
2022/01/18 13:03:52;;;;;;;0.82;0.82;;;;;;;-6.47;72.26;98295.81;5035129;28;20050;-88
2022/01/18 13:06:22;;;;;;;0.88;0.88;;;;;;;-6.36;72.34;98304.25;5027817;28;20108;-88
2022/01/18 13:08:54;;;;;;;0.80;0.80;;;;;;;-6.09;71.98;98318.22;5027874;28;20057;-89
2022/01/18 13:11:49;;;;;;;0.82;0.82;;;;;;;-5.98;72.15;98304.00;5013610;28;20148;-88
2022/01/18 13:14:18;;;;;;;0.90;0.90;;;;;;;-6.30;72.60;98323.84;5011567;28;20045;-89
2022/01/18 13:25:14;;;;;;;0.60;0.60;;;;;;;-6.94;73.11;98353.81;5026862;28;20046;-92
2022/01/18 13:27:50;;;;;;;0.80;0.80;;;;;;;-7.05;73.53;98350.44;5021013;28;20061;-88
2022/01/18 13:30:25;;;;;;;0.60;0.60;;;;;;;-7.08;74.02;98363.84;5015447;28;20108;-87
2022/01/18 13:32:53;;;;;;;0.65;0.65;;;;;;;-7.12;74.01;98375.59;5015329;28;20484;-90
2022/01/18 13:35:24;;;;;;;0.70;0.70;;;;;;;-7.18;74.20;98376.22;5016122;28;20574;-89